createdAt,value
2023-05-18T00:00:29.911Z,65.04
2023-05-18T00:01:30.173Z,65.14
2023-05-18T00:02:30.386Z,65.34
2023-05-18T00:03:30.714Z,65.24
2023-05-18T00:04:30.775Z,65.24
2023-05-18T00:05:31.148Z,65.45
2023-05-18T00:06:31.121Z,65.55
2023-05-18T00:07:31.399Z,65.55
2023-05-18T00:08:31.558Z,65.55
2023-05-18T00:09:31.818Z,65.75
2023-05-18T00:10:32.001Z,65.75
2023-05-18T00:11:32.154Z,65.86
2023-05-18T00:12:32.314Z,65.96
2023-05-18T00:13:32.480Z,66.09
2023-05-18T00:14:32.645Z,66.19
2023-05-18T00:15:32.950Z,66.40
2023-05-18T00:16:33.095Z,66.50
2023-05-18T00:17:33.299Z,66.60
2023-05-18T00:18:33.419Z,66.50
2023-05-18T00:19:33.693Z,66.60
2023-05-18T00:20:33.853Z,66.50
2023-05-18T00:21:34.026Z,66.50
2023-05-18T00:22:34.196Z,66.71
2023-05-18T00:23:34.350Z,66.81
2023-05-18T00:24:36.858Z,66.71
2023-05-18T00:25:34.744Z,66.60
2023-05-18T00:26:34.875Z,66.81
2023-05-18T00:27:35.054Z,66.91
2023-05-18T00:28:35.200Z,66.91
2023-05-18T00:29:35.472Z,66.81
2023-05-18T00:30:35.650Z,67.02
2023-05-18T00:31:35.861Z,67.22
2023-05-18T00:32:36.081Z,67.22
2023-05-18T00:33:36.185Z,67.32
2023-05-18T00:34:37.325Z,67.32
2023-05-18T00:35:36.607Z,67.52
2023-05-18T00:36:36.763Z,67.76
2023-05-18T00:37:36.944Z,67.73
2023-05-18T00:38:37.109Z,67.73
2023-05-18T00:39:37.279Z,67.52
2023-05-18T00:40:37.438Z,67.73
2023-05-18T00:41:37.616Z,67.83
2023-05-18T00:42:37.789Z,67.73
2023-05-18T00:43:37.950Z,67.63
2023-05-18T00:44:38.115Z,67.83
2023-05-18T00:45:38.400Z,67.94
2023-05-18T00:46:38.545Z,67.83
2023-05-18T00:47:38.802Z,67.94
2023-05-18T00:48:38.968Z,68.17
2023-05-18T00:49:39.168Z,68.38
2023-05-18T00:50:39.317Z,68.27
2023-05-18T00:51:39.606Z,68.48
2023-05-18T00:52:39.787Z,68.38
2023-05-18T00:53:41.563Z,68.68
2023-05-18T00:54:40.206Z,68.79
2023-05-18T00:55:40.410Z,68.68
2023-05-18T00:56:40.557Z,68.59
2023-05-18T00:57:40.862Z,68.59
2023-05-18T00:58:41.019Z,68.89
2023-05-18T00:59:41.309Z,68.99
2023-05-18T01:00:41.486Z,69.30
2023-05-18T01:01:41.725Z,68.99
2023-05-18T01:02:41.959Z,69.20
2023-05-18T01:03:42.088Z,68.99
2023-05-18T01:04:42.218Z,69.10
2023-05-18T01:05:42.399Z,69.30
2023-05-18T01:06:42.599Z,69.20
2023-05-18T01:07:42.764Z,69.54
2023-05-18T01:08:42.924Z,69.54
2023-05-18T01:09:43.221Z,69.51
2023-05-18T01:10:43.423Z,69.51
2023-05-18T01:11:43.588Z,69.43
2023-05-18T01:12:43.780Z,69.64
2023-05-18T01:13:44.051Z,69.64
2023-05-18T01:14:44.193Z,69.84
2023-05-18T01:15:44.378Z,69.95
2023-05-18T01:16:44.581Z,70.05
2023-05-18T01:17:44.784Z,70.15
2023-05-18T01:18:44.944Z,70.36
2023-05-18T01:19:45.098Z,70.15
2023-05-18T01:20:45.266Z,70.15
2023-05-18T01:21:45.618Z,70.15
2023-05-18T01:22:45.702Z,70.26
2023-05-18T01:23:45.895Z,70.15
2023-05-18T01:24:46.063Z,70.36
2023-05-18T01:25:46.231Z,70.36
2023-05-18T01:26:46.403Z,70.67
2023-05-18T01:27:46.699Z,70.36
2023-05-18T01:28:46.760Z,70.56
2023-05-18T01:29:46.907Z,70.56
2023-05-18T01:30:47.123Z,70.77
2023-05-18T01:31:47.270Z,70.77
2023-05-18T01:32:47.521Z,70.97
2023-05-18T01:33:47.613Z,70.97
2023-05-18T01:34:47.777Z,70.87
2023-05-18T01:35:48.297Z,70.87
2023-05-18T01:36:48.095Z,70.87
2023-05-18T01:37:48.271Z,70.77
2023-05-18T01:38:48.428Z,70.87
2023-05-18T01:39:48.686Z,70.77
2023-05-18T01:40:48.841Z,71.08
2023-05-18T01:41:48.999Z,70.97
2023-05-18T01:42:49.161Z,70.87
2023-05-18T01:43:49.335Z,70.87
2023-05-18T01:44:49.487Z,70.73
2023-05-18T01:45:49.760Z,70.53
2023-05-18T01:46:50.045Z,70.53
2023-05-18T01:47:50.200Z,70.53
2023-05-18T01:48:50.342Z,70.43
2023-05-18T01:49:50.513Z,70.32
2023-05-18T01:50:50.693Z,70.12
2023-05-18T01:51:50.854Z,70.02
2023-05-18T01:52:51.050Z,69.92
2023-05-18T01:53:51.214Z,69.92
2023-05-18T01:54:51.408Z,69.92
2023-05-18T01:55:51.564Z,70.12
2023-05-18T01:56:51.740Z,70.22
2023-05-18T01:57:51.926Z,70.02
2023-05-18T01:58:52.068Z,70.22
2023-05-18T01:59:52.387Z,70.32
2023-05-18T02:00:52.545Z,70.56
2023-05-18T02:01:59.193Z,70.67
2023-05-18T02:02:54.051Z,70.67
2023-05-18T02:03:53.331Z,70.77
2023-05-18T02:04:53.342Z,70.77
2023-05-18T02:05:53.627Z,71.18
2023-05-18T02:06:53.856Z,71.28
2023-05-18T02:07:54.064Z,71.28
2023-05-18T02:08:54.208Z,71.48
2023-05-18T02:09:54.373Z,71.59
2023-05-18T02:10:54.534Z,71.48
2023-05-18T02:11:54.831Z,71.72
2023-05-18T02:12:55.001Z,71.83
2023-05-18T02:13:55.167Z,71.93
2023-05-18T02:14:55.354Z,71.62
2023-05-18T02:15:55.648Z,71.83
2023-05-18T02:16:55.770Z,72.34
2023-05-18T02:17:56.018Z,72.14
2023-05-18T02:18:56.243Z,72.03
2023-05-18T02:19:56.386Z,72.03
2023-05-18T02:20:56.558Z,71.93
2023-05-18T02:21:56.817Z,71.93
2023-05-18T02:22:57.006Z,71.83
2023-05-18T02:23:57.163Z,72.03
2023-05-18T02:24:57.369Z,72.14
2023-05-18T02:25:57.598Z,72.24
2023-05-18T02:26:57.806Z,72.34
2023-05-18T02:27:58.001Z,72.44
2023-05-18T02:28:58.188Z,72.55
2023-05-18T02:29:58.353Z,72.55
2023-05-18T02:30:58.537Z,72.65
2023-05-18T02:31:58.747Z,72.85
2023-05-18T02:32:58.906Z,72.78
2023-05-18T02:33:59.098Z,72.99
2023-05-18T02:34:59.276Z,72.89
2023-05-18T02:35:59.491Z,73.10
2023-05-18T02:36:59.697Z,73.10
2023-05-18T02:37:59.862Z,73.19
2023-05-18T02:39:00.103Z,73.10
2023-05-18T02:40:00.271Z,73.10
2023-05-18T02:41:00.439Z,73.19
2023-05-18T02:42:00.608Z,73.19
2023-05-18T02:43:00.766Z,73.10
2023-05-18T02:44:00.928Z,73.10
2023-05-18T02:45:01.101Z,73.30
2023-05-18T02:46:01.322Z,73.19
2023-05-18T02:47:01.446Z,73.30
2023-05-18T02:48:01.681Z,73.30
2023-05-18T02:49:01.808Z,73.40
2023-05-18T02:50:02.107Z,73.50
2023-05-18T02:51:02.277Z,73.40
2023-05-18T02:52:02.434Z,73.71
2023-05-18T02:53:02.614Z,73.71
2023-05-18T02:54:02.789Z,73.81
2023-05-18T02:55:02.959Z,73.91
2023-05-18T02:56:03.133Z,73.91
2023-05-18T02:57:03.291Z,73.81
2023-05-18T02:58:03.608Z,73.91
2023-05-18T02:59:03.991Z,74.12
2023-05-18T03:00:04.031Z,74.02
2023-05-18T03:01:04.210Z,74.02
2023-05-18T03:02:04.391Z,74.02
2023-05-18T03:03:04.602Z,74.02
2023-05-18T03:04:04.727Z,74.02
2023-05-18T03:05:04.893Z,74.22
2023-05-18T03:06:05.057Z,74.32
2023-05-18T03:07:05.217Z,74.63
2023-05-18T03:08:05.546Z,74.63
2023-05-18T03:09:05.736Z,74.43
2023-05-18T03:10:05.891Z,74.32
2023-05-18T03:11:06.062Z,74.53
2023-05-18T03:12:06.332Z,74.53
2023-05-18T03:13:06.523Z,74.63
2023-05-18T03:14:06.695Z,74.94
2023-05-18T03:15:06.840Z,75.08
2023-05-18T03:16:07.142Z,75.08
2023-05-18T03:17:07.342Z,74.98
2023-05-18T03:18:07.619Z,74.98
2023-05-18T03:19:07.843Z,75.29
2023-05-18T03:20:08.021Z,75.38
2023-05-18T03:21:08.182Z,75.29
2023-05-18T03:22:08.356Z,75.59
2023-05-18T03:23:08.518Z,75.38
2023-05-18T03:24:08.721Z,75.49
2023-05-18T03:25:08.885Z,75.90
2023-05-18T03:26:09.142Z,76.00
2023-05-18T03:27:09.301Z,76.00
2023-05-18T03:28:09.609Z,75.90
2023-05-18T03:29:09.768Z,76.10
2023-05-18T03:30:09.944Z,76.10
2023-05-18T03:31:10.181Z,75.90
2023-05-18T03:32:10.411Z,75.80
2023-05-18T03:33:10.735Z,75.80
2023-05-18T03:34:10.820Z,75.59
2023-05-18T03:35:10.988Z,75.49
2023-05-18T03:36:11.182Z,75.29
2023-05-18T03:37:11.342Z,75.35
2023-05-18T03:38:11.527Z,75.15
2023-05-18T03:39:11.693Z,75.15
2023-05-18T03:40:11.907Z,75.04
2023-05-18T03:41:12.045Z,75.04
2023-05-18T03:42:12.208Z,75.25
2023-05-18T03:43:12.383Z,75.15
2023-05-18T03:44:12.559Z,75.15
2023-05-18T03:45:12.696Z,74.84
2023-05-18T03:46:13.055Z,74.84
2023-05-18T03:47:13.168Z,75.04
2023-05-18T03:48:13.649Z,75.04
2023-05-18T03:49:13.686Z,75.04
2023-05-18T03:50:13.877Z,74.94
2023-05-18T03:51:14.040Z,75.25
2023-05-18T03:52:14.240Z,74.84
2023-05-18T03:53:14.393Z,74.49
2023-05-18T03:54:14.582Z,74.80
2023-05-18T03:55:14.753Z,74.49
2023-05-18T03:56:14.950Z,74.60
2023-05-18T03:57:15.096Z,74.63
2023-05-18T03:58:15.279Z,74.53
2023-05-18T03:59:15.463Z,74.63
2023-05-18T04:00:15.619Z,74.84
2023-05-18T04:01:15.841Z,74.63
2023-05-18T04:02:16.113Z,74.49
2023-05-18T04:03:16.273Z,74.40
2023-05-18T04:04:16.465Z,74.40
2023-05-18T04:05:16.610Z,74.49
2023-05-18T04:06:16.785Z,74.49
2023-05-18T04:07:16.968Z,74.94
2023-05-18T04:08:17.139Z,74.74
2023-05-18T04:09:17.333Z,74.80
2023-05-18T04:10:17.501Z,74.70
2023-05-18T04:11:17.779Z,74.70
2023-05-18T04:12:17.916Z,74.40
2023-05-18T04:13:18.219Z,74.49
2023-05-18T04:14:18.384Z,74.49
2023-05-18T04:15:18.659Z,74.29
2023-05-18T04:16:18.905Z,74.40
2023-05-18T04:17:19.063Z,74.70
2023-05-18T04:18:19.240Z,74.60
2023-05-18T04:19:19.443Z,74.49
2023-05-18T04:20:19.599Z,74.49
2023-05-18T04:21:19.793Z,74.40
2023-05-18T04:22:19.968Z,74.19
2023-05-18T04:23:20.147Z,74.29
2023-05-18T04:24:20.295Z,74.36
2023-05-18T04:25:20.469Z,74.05
2023-05-18T04:26:20.620Z,74.26
2023-05-18T04:27:20.908Z,74.36
2023-05-18T04:28:21.108Z,74.15
2023-05-18T04:29:21.310Z,74.15
2023-05-18T04:30:21.486Z,73.85
2023-05-18T04:31:21.704Z,74.15
2023-05-18T04:32:21.811Z,74.15
2023-05-18T04:33:22.093Z,74.26
2023-05-18T04:34:22.273Z,74.15
2023-05-18T04:35:22.432Z,74.15
2023-05-18T04:36:22.609Z,73.95
2023-05-18T04:37:22.769Z,73.91
2023-05-18T04:38:22.931Z,73.81
2023-05-18T04:39:23.131Z,74.02
2023-05-18T04:40:23.291Z,73.91
2023-05-18T04:41:23.576Z,73.81
2023-05-18T04:42:23.743Z,73.71
2023-05-18T04:43:23.912Z,73.50
2023-05-18T04:44:24.070Z,73.40
2023-05-18T04:45:24.326Z,73.40
2023-05-18T04:46:24.577Z,73.16
2023-05-18T04:47:24.765Z,72.96
2023-05-18T04:48:24.858Z,73.16
2023-05-18T04:49:25.122Z,73.06
2023-05-18T04:50:25.285Z,73.27
2023-05-18T04:51:25.438Z,72.96
2023-05-18T04:52:25.587Z,73.06
2023-05-18T04:53:25.856Z,72.96
2023-05-18T04:54:26.031Z,72.65
2023-05-18T04:55:26.565Z,72.44
2023-05-18T04:56:26.434Z,72.55
2023-05-18T04:57:26.605Z,72.65
2023-05-18T04:58:27.835Z,72.72
2023-05-18T04:59:27.044Z,72.75
2023-05-18T05:00:27.194Z,72.92
2023-05-18T05:01:27.508Z,72.72
2023-05-18T05:02:27.667Z,72.61
2023-05-18T05:03:28.021Z,72.52
2023-05-18T05:04:28.064Z,72.20
2023-05-18T05:05:28.456Z,72.11
2023-05-18T05:06:28.521Z,72.00
2023-05-18T05:07:28.676Z,71.86
2023-05-18T05:08:28.859Z,71.86
2023-05-18T05:09:29.031Z,71.66
2023-05-18T05:10:29.187Z,71.36
2023-05-18T05:11:29.345Z,71.25
2023-05-18T05:12:29.546Z,71.25
2023-05-18T05:13:29.775Z,71.22
2023-05-18T05:14:29.921Z,71.22
2023-05-18T05:15:30.329Z,71.01
2023-05-18T05:16:30.521Z,71.01
2023-05-18T05:17:30.636Z,70.78
2023-05-18T05:18:30.768Z,70.67
2023-05-18T05:19:30.962Z,70.37
2023-05-18T05:20:31.071Z,70.26
2023-05-18T05:21:31.357Z,70.47
2023-05-18T05:22:31.547Z,70.57
2023-05-18T05:23:31.709Z,70.37
2023-05-18T05:24:31.829Z,70.16
2023-05-18T05:25:32.306Z,70.47
2023-05-18T05:26:32.270Z,70.47
2023-05-18T05:27:32.550Z,70.06
2023-05-18T05:28:32.730Z,69.85
2023-05-18T05:29:32.867Z,69.85
2023-05-18T05:30:33.008Z,69.75
2023-05-18T05:31:33.315Z,69.96
2023-05-18T05:32:33.469Z,69.62
2023-05-18T05:33:33.727Z,70.26
2023-05-18T05:34:33.932Z,70.16
2023-05-18T05:35:34.486Z,70.06
2023-05-18T05:36:34.338Z,70.13
2023-05-18T05:37:34.525Z,69.72
2023-05-18T05:38:34.765Z,69.28
2023-05-18T05:39:34.925Z,68.57
2023-05-18T05:40:35.089Z,68.36
2023-05-18T05:41:35.290Z,68.46
2023-05-18T05:42:35.432Z,68.23
2023-05-18T05:43:35.628Z,67.92
2023-05-18T05:44:35.765Z,67.71
2023-05-18T05:45:35.924Z,67.30
2023-05-18T05:46:36.100Z,67.30
2023-05-18T05:47:36.281Z,67.10
2023-05-18T05:48:36.424Z,66.97
2023-05-18T05:49:36.605Z,66.77
2023-05-18T05:50:36.756Z,66.77
2023-05-18T05:51:37.021Z,66.46
2023-05-18T05:52:37.163Z,66.22
2023-05-18T05:53:37.429Z,66.02
2023-05-18T05:54:37.566Z,66.36
2023-05-18T05:55:37.839Z,66.53
2023-05-18T05:56:37.988Z,66.22
2023-05-18T05:57:38.155Z,65.99
2023-05-18T05:58:38.325Z,65.58
2023-05-18T06:00:46.482Z,65.04
2023-05-18T06:01:46.550Z,64.50
2023-05-18T06:02:46.675Z,63.01
2023-05-18T06:03:46.834Z,60.79
2023-05-18T06:04:46.806Z,58.98
2023-05-18T06:05:46.900Z,56.05
2023-05-18T06:06:46.960Z,54.66
2023-05-18T06:07:47.198Z,53.30
2023-05-18T06:08:47.318Z,53.09
2023-05-18T06:09:47.385Z,51.48
2023-05-18T06:10:47.451Z,49.59
2023-05-18T06:11:47.574Z,47.83
2023-05-18T06:12:47.635Z,48.14
2023-05-18T06:13:47.842Z,47.51
2023-05-18T06:14:47.907Z,46.88
2023-05-18T06:15:47.998Z,46.76
2023-05-18T06:16:48.093Z,46.23
2023-05-18T06:17:48.187Z,45.73
2023-05-18T06:18:48.219Z,46.34
2023-05-18T06:19:48.270Z,45.39
2023-05-18T06:20:48.318Z,44.59
2023-05-18T06:21:48.388Z,44.79
2023-05-18T06:22:48.439Z,43.96
2023-05-18T06:23:48.508Z,44.26
2023-05-18T06:24:48.610Z,43.12
2023-05-18T06:25:48.666Z,43.10
2023-05-18T06:26:48.689Z,42.69
2023-05-18T06:27:48.735Z,42.63
2023-05-18T06:28:48.781Z,43.54
2023-05-18T06:29:48.820Z,44.36
2023-05-18T06:30:48.844Z,44.16
2023-05-18T06:31:48.984Z,43.34
2023-05-18T06:32:49.019Z,42.49
2023-05-18T06:33:49.040Z,43.34
2023-05-18T06:34:49.056Z,44.12
2023-05-18T06:35:49.127Z,46.06
2023-05-18T06:36:49.133Z,45.83
2023-05-18T06:37:49.170Z,44.95
2023-05-18T06:38:49.243Z,45.25
2023-05-18T06:39:49.268Z,46.06
2023-05-18T06:40:49.277Z,45.94
2023-05-18T06:41:49.312Z,44.16
2023-05-18T06:42:49.311Z,44.06
2023-05-18T06:43:49.447Z,42.60
2023-05-18T06:44:49.544Z,41.79
2023-05-18T06:45:49.640Z,42.11
2023-05-18T06:46:49.643Z,42.66
2023-05-18T06:47:49.756Z,43.06
2023-05-18T06:48:49.773Z,42.52
2023-05-18T06:49:49.780Z,41.89
2023-05-18T06:50:49.802Z,42.02
2023-05-18T06:51:49.809Z,42.10
2023-05-18T06:52:49.830Z,41.39
2023-05-18T06:53:49.861Z,41.38
2023-05-18T06:54:49.878Z,41.47
2023-05-18T06:55:49.890Z,41.09
2023-05-18T06:56:49.913Z,42.07
2023-05-18T06:57:49.950Z,42.92
2023-05-18T06:58:49.995Z,43.42
2023-05-18T06:59:49.998Z,44.02
2023-05-18T07:00:50.030Z,42.82
2023-05-18T07:01:50.115Z,43.60
2023-05-18T07:02:50.079Z,42.40
2023-05-18T07:03:50.121Z,43.22
2023-05-18T07:04:50.092Z,43.70
2023-05-18T07:05:50.098Z,43.26
2023-05-18T07:06:50.128Z,41.99
2023-05-18T07:07:50.160Z,41.05
2023-05-18T07:08:50.148Z,40.22
2023-05-18T07:09:50.177Z,40.13
2023-05-18T07:10:50.177Z,40.45
2023-05-18T07:11:50.186Z,41.89
2023-05-18T07:12:50.186Z,40.45
2023-05-18T07:13:50.193Z,38.63
2023-05-18T07:14:50.228Z,38.51
2023-05-18T07:15:50.256Z,39.17
2023-05-18T07:16:50.238Z,39.57
2023-05-18T07:17:50.275Z,39.69
2023-05-18T07:18:50.352Z,41.01
2023-05-18T07:19:50.318Z,40.97
2023-05-18T07:20:50.321Z,40.15
2023-05-18T07:21:50.335Z,40.37
2023-05-18T07:22:50.332Z,40.99
2023-05-18T07:23:50.366Z,42.60
2023-05-18T07:24:50.384Z,42.55
2023-05-18T07:25:50.418Z,41.29
2023-05-18T07:26:50.420Z,41.29
2023-05-18T07:27:50.426Z,41.38
2023-05-18T07:28:50.438Z,41.39
2023-05-18T07:29:50.455Z,40.73
2023-05-18T07:30:50.508Z,41.82
2023-05-18T07:31:50.540Z,44.71
2023-05-18T07:32:50.542Z,45.66
2023-05-18T07:33:50.574Z,44.81
2023-05-18T07:34:50.572Z,43.54
2023-05-18T07:35:50.591Z,43.54
2023-05-18T07:36:50.591Z,44.04
2023-05-18T07:37:50.621Z,44.02
2023-05-18T07:38:50.688Z,42.92
2023-05-18T07:39:50.677Z,42.68
2023-05-18T07:40:50.692Z,41.63
2023-05-18T07:41:50.715Z,41.71
2023-05-18T07:42:50.728Z,41.51
2023-05-18T07:43:50.808Z,41.60
2023-05-18T07:44:50.783Z,39.72
2023-05-18T07:45:50.774Z,38.36
2023-05-18T07:46:50.801Z,38.56
2023-05-18T07:47:50.806Z,39.09
2023-05-18T07:48:50.839Z,38.26
2023-05-18T07:49:50.827Z,37.88
2023-05-18T07:50:50.793Z,38.53
2023-05-18T07:51:50.797Z,38.81
2023-05-18T07:52:50.784Z,39.22
2023-05-18T07:53:50.742Z,39.01
2023-05-18T07:54:50.723Z,38.57
2023-05-18T07:55:50.700Z,37.86
2023-05-18T07:56:50.696Z,37.44
2023-05-18T07:57:50.693Z,36.82
2023-05-18T07:58:50.673Z,36.24
2023-05-18T07:59:50.687Z,36.46
2023-05-18T08:00:50.664Z,36.24
2023-05-18T08:01:50.664Z,36.02
2023-05-18T08:02:50.757Z,37.59
2023-05-18T08:03:50.697Z,38.35
2023-05-18T08:04:50.646Z,38.68
2023-05-18T08:05:50.625Z,39.95
2023-05-18T08:06:50.600Z,41.51
2023-05-18T08:07:50.569Z,42.61
2023-05-18T08:08:50.516Z,42.30
2023-05-18T08:09:50.511Z,41.59
2023-05-18T08:10:50.489Z,40.39
2023-05-18T08:11:50.487Z,39.39
2023-05-18T08:12:50.457Z,39.49
2023-05-18T08:13:50.441Z,39.49
2023-05-18T08:14:50.404Z,39.81
2023-05-18T08:15:59.251Z,40.63
2023-05-18T08:16:51.386Z,40.55
2023-05-18T08:17:50.428Z,40.97
2023-05-18T08:18:50.473Z,41.37
2023-05-18T08:19:50.451Z,41.37
2023-05-18T08:20:50.453Z,40.51
2023-05-18T08:21:50.484Z,38.77
2023-05-18T08:22:50.472Z,38.68
2023-05-18T08:23:50.483Z,39.14
2023-05-18T08:24:50.477Z,40.30
2023-05-18T08:25:50.492Z,41.77
2023-05-18T08:26:50.478Z,42.70
2023-05-18T08:27:50.470Z,43.59
2023-05-18T08:28:50.461Z,42.19
2023-05-18T08:29:50.475Z,40.83
2023-05-18T08:30:50.462Z,39.93
2023-05-18T08:31:50.622Z,40.47
2023-05-18T08:32:50.515Z,40.89
2023-05-18T08:33:50.493Z,41.71
2023-05-18T08:34:50.494Z,41.82
2023-05-18T08:35:50.462Z,42.21
2023-05-18T08:36:50.459Z,41.19
2023-05-18T08:37:50.482Z,40.79
2023-05-18T08:38:50.464Z,41.43
2023-05-18T08:39:50.470Z,42.15
2023-05-18T08:40:50.454Z,42.76
2023-05-18T08:41:50.445Z,43.10
2023-05-18T08:42:50.927Z,43.18
2023-05-18T08:43:50.473Z,42.98
2023-05-18T08:44:50.472Z,42.88
2023-05-18T08:45:50.450Z,42.98
2023-05-18T08:46:50.468Z,42.96
2023-05-18T08:47:50.523Z,42.76
2023-05-18T08:48:50.560Z,42.21
2023-05-18T08:49:50.508Z,40.85
2023-05-18T08:50:50.535Z,40.19
2023-05-18T08:51:50.520Z,39.67
2023-05-18T08:52:50.496Z,38.11
2023-05-18T08:53:50.500Z,38.07
2023-05-18T08:54:50.488Z,36.52
2023-05-18T08:55:50.462Z,35.11
2023-05-18T08:56:50.437Z,34.99
2023-05-18T08:57:50.427Z,35.01
2023-05-18T08:58:50.382Z,36.34
2023-05-18T08:59:50.348Z,36.43
2023-05-18T09:00:50.308Z,35.49
2023-05-18T09:01:50.276Z,34.78
2023-05-18T09:02:50.220Z,35.89
2023-05-18T09:03:50.135Z,35.59
2023-05-18T09:04:50.131Z,34.91
2023-05-18T09:05:50.051Z,35.26
2023-05-18T09:06:49.986Z,37.61
2023-05-18T09:07:49.945Z,38.89
2023-05-18T09:08:49.912Z,39.73
2023-05-18T09:09:49.853Z,39.64
2023-05-18T09:10:49.836Z,40.55
2023-05-18T09:11:49.827Z,40.48
2023-05-18T09:12:49.776Z,41.69
2023-05-18T09:13:49.751Z,40.99
2023-05-18T09:14:49.709Z,40.70
2023-05-18T09:15:49.732Z,41.71
2023-05-18T09:16:49.696Z,42.21
2023-05-18T09:17:49.800Z,42.21
2023-05-18T09:18:49.772Z,42.55
2023-05-18T09:19:49.734Z,42.76
2023-05-18T09:20:49.774Z,43.14
2023-05-18T09:21:49.763Z,42.24
2023-05-18T09:22:49.757Z,40.91
2023-05-18T09:23:49.791Z,40.91
2023-05-18T09:24:49.736Z,41.21
2023-05-18T09:25:49.743Z,40.48
2023-05-18T09:26:49.743Z,40.48
2023-05-18T09:27:49.748Z,40.48
2023-05-18T09:28:49.748Z,40.79
2023-05-18T09:29:49.743Z,41.01
2023-05-18T09:30:49.759Z,40.91
2023-05-18T09:31:49.767Z,40.81
2023-05-18T09:32:49.918Z,41.01
2023-05-18T09:33:49.814Z,40.91
2023-05-18T09:34:49.805Z,40.47
2023-05-18T09:35:49.825Z,38.60
2023-05-18T09:36:49.784Z,38.09
2023-05-18T09:37:49.792Z,38.81
2023-05-18T09:38:49.718Z,39.81
2023-05-18T09:39:49.680Z,39.40
2023-05-18T09:40:50.617Z,40.13
2023-05-18T09:41:49.698Z,40.67
2023-05-18T09:42:49.722Z,41.79
2023-05-18T09:43:49.689Z,41.71
2023-05-18T09:44:49.673Z,41.91
2023-05-18T09:45:49.693Z,42.01
2023-05-18T09:46:49.724Z,41.61
2023-05-18T09:47:49.838Z,41.59
2023-05-18T09:48:49.788Z,41.47
2023-05-18T09:49:49.773Z,41.07
2023-05-18T09:50:49.765Z,41.47
2023-05-18T09:51:49.788Z,40.99
2023-05-18T09:52:49.774Z,41.47
2023-05-18T09:53:49.773Z,40.13
2023-05-18T09:54:49.754Z,40.71
2023-05-18T09:55:49.757Z,40.39
2023-05-18T09:57:02.027Z,40.09
2023-05-18T09:57:50.725Z,39.47
2023-05-18T09:58:49.680Z,39.05
2023-05-18T09:59:49.673Z,38.23
2023-05-18T10:00:49.671Z,38.25
2023-05-18T10:01:49.618Z,38.75
2023-05-18T10:02:49.712Z,39.29
2023-05-18T10:03:49.599Z,39.31
2023-05-18T10:04:49.653Z,39.93
2023-05-18T10:05:49.623Z,40.55
2023-05-18T10:06:49.609Z,40.73
2023-05-18T10:07:49.620Z,40.13
2023-05-18T10:08:49.647Z,40.01
2023-05-18T10:09:49.661Z,40.03
2023-05-18T10:10:49.647Z,40.57
2023-05-18T10:11:49.654Z,39.76
2023-05-18T10:12:49.680Z,39.54
2023-05-18T10:13:49.687Z,39.86
2023-05-18T10:14:49.698Z,39.36
2023-05-18T10:15:49.700Z,39.64
2023-05-18T10:17:49.950Z,37.88
2023-05-18T10:18:49.807Z,38.60
2023-05-18T10:19:49.761Z,38.62
2023-05-18T10:20:49.765Z,38.51
2023-05-18T10:21:49.753Z,39.18
2023-05-18T10:22:49.788Z,38.65
2023-05-18T10:23:49.761Z,37.45
2023-05-18T10:24:49.723Z,38.23
2023-05-18T10:25:49.705Z,37.49
2023-05-18T10:26:52.004Z,35.48
2023-05-18T10:27:49.623Z,36.56
2023-05-18T10:28:49.592Z,35.94
2023-05-18T10:29:49.538Z,35.11
2023-05-18T10:30:49.537Z,34.43
2023-05-18T10:31:49.467Z,34.84
2023-05-18T10:32:49.481Z,34.33
2023-05-18T10:33:49.417Z,34.31
2023-05-18T10:34:49.333Z,33.75
2023-05-18T10:35:49.285Z,34.94
2023-05-18T10:36:49.256Z,34.94
2023-05-18T10:37:49.188Z,34.64
2023-05-18T10:38:49.116Z,35.35
2023-05-18T10:39:49.050Z,35.98
2023-05-18T10:40:49.019Z,37.21
2023-05-18T10:41:48.950Z,36.93
2023-05-18T10:42:48.912Z,37.53
2023-05-18T10:43:48.870Z,36.85
2023-05-18T10:44:48.829Z,37.15
2023-05-18T10:45:48.797Z,37.57
2023-05-18T10:46:48.931Z,37.50
2023-05-18T10:47:48.839Z,38.07
2023-05-18T10:48:48.821Z,37.63
2023-05-18T10:49:48.830Z,36.18
2023-05-18T10:50:48.813Z,35.46
2023-05-18T10:51:48.761Z,34.33
2023-05-18T10:52:48.715Z,33.72
2023-05-18T10:53:48.673Z,33.78
2023-05-18T10:54:48.628Z,33.28
2023-05-18T10:55:48.602Z,32.56
2023-05-18T10:56:48.511Z,32.24
2023-05-18T10:57:48.446Z,32.04
2023-05-18T10:58:48.384Z,32.42
2023-05-18T10:59:48.662Z,32.03
2023-05-18T11:00:48.280Z,32.56
2023-05-18T11:01:49.193Z,32.59
2023-05-18T11:02:48.175Z,33.22
2023-05-18T11:03:48.997Z,34.64
2023-05-18T11:04:48.170Z,34.36
2023-05-18T11:05:48.006Z,34.84
2023-05-18T11:06:47.969Z,35.23
2023-05-18T11:07:47.911Z,33.98
2023-05-18T11:08:48.597Z,32.04
2023-05-18T11:09:48.688Z,31.90
2023-05-18T11:10:47.693Z,29.22
2023-05-18T11:11:47.620Z,30.76
2023-05-18T11:12:47.571Z,33.15
2023-05-18T11:13:47.524Z,32.03
2023-05-18T11:14:47.467Z,31.81
2023-05-18T11:15:47.484Z,31.51
2023-05-18T11:16:47.558Z,31.51
2023-05-18T11:17:47.422Z,32.06
2023-05-18T11:18:47.368Z,32.34
2023-05-18T11:19:47.281Z,33.48
2023-05-18T11:20:47.233Z,33.81
2023-05-18T11:21:47.186Z,33.61
2023-05-18T11:22:47.132Z,34.21
2023-05-18T11:23:47.087Z,34.01
2023-05-18T11:24:47.060Z,33.72
2023-05-18T11:25:47.057Z,33.93
2023-05-18T11:26:47.013Z,34.01
2023-05-18T11:27:46.952Z,34.09
2023-05-18T11:28:48.947Z,33.40
2023-05-18T11:29:46.877Z,33.88
2023-05-18T11:30:46.898Z,33.28
2023-05-18T11:31:47.158Z,32.98
2023-05-18T11:32:46.986Z,33.30
2023-05-18T11:33:46.909Z,34.23
2023-05-18T11:34:46.841Z,34.63
2023-05-18T11:35:46.847Z,34.63
2023-05-18T11:36:46.820Z,35.24
2023-05-18T11:37:46.786Z,35.26
2023-05-18T11:38:46.788Z,35.38
2023-05-18T11:39:58.166Z,36.38
2023-05-18T11:40:47.770Z,36.28
2023-05-18T11:41:46.767Z,36.08
2023-05-18T11:42:46.748Z,35.80
2023-05-18T11:43:46.725Z,36.83
2023-05-18T11:44:46.721Z,36.66
2023-05-18T11:45:46.703Z,37.88
2023-05-18T11:46:46.727Z,38.60
2023-05-18T11:47:46.783Z,38.82
2023-05-18T11:48:46.832Z,38.20
2023-05-18T11:49:46.703Z,37.60
2023-05-18T11:50:46.692Z,37.28
2023-05-18T11:51:46.709Z,36.33
2023-05-18T11:52:46.698Z,35.48
2023-05-18T11:53:46.692Z,34.83
2023-05-18T11:54:46.711Z,34.28
2023-05-18T11:55:46.748Z,33.45
2023-05-18T11:56:46.703Z,33.34
2023-05-18T11:57:46.698Z,32.93
2023-05-18T11:58:46.672Z,31.41
2023-05-18T11:59:46.687Z,31.00
2023-05-18T12:00:53.663Z,30.02
2023-05-18T12:01:46.636Z,31.51
2023-05-18T12:02:46.785Z,30.70
2023-05-18T12:03:48.505Z,31.29
2023-05-18T12:04:46.758Z,30.87
2023-05-18T12:05:46.674Z,30.23
2023-05-18T12:06:46.636Z,30.05
2023-05-18T12:07:46.626Z,29.83
2023-05-18T12:08:46.566Z,30.44
2023-05-18T12:09:46.520Z,30.44
2023-05-18T12:10:46.490Z,30.36
2023-05-18T12:11:46.451Z,30.28
2023-05-18T12:12:46.421Z,32.11
2023-05-18T12:13:46.387Z,32.62
2023-05-18T12:14:46.354Z,33.05
2023-05-18T12:15:46.320Z,33.37
2023-05-18T12:16:46.328Z,33.48
2023-05-18T12:17:46.360Z,34.41
2023-05-18T12:18:46.327Z,33.83
2023-05-18T12:19:46.278Z,33.76
2023-05-18T12:20:46.249Z,35.71
2023-05-18T12:21:46.228Z,35.43
2023-05-18T12:22:46.234Z,36.28
2023-05-18T12:23:46.212Z,37.60
2023-05-18T12:24:46.201Z,38.07
2023-05-18T12:25:46.204Z,36.51
2023-05-18T12:26:46.203Z,35.16
2023-05-18T12:27:46.193Z,34.31
2023-05-18T12:28:46.209Z,33.26
2023-05-18T12:29:46.180Z,32.23
2023-05-18T12:30:46.195Z,31.32
2023-05-18T12:31:46.136Z,31.41
2023-05-18T12:32:46.175Z,32.01
2023-05-18T12:33:46.139Z,32.01
2023-05-18T12:34:46.116Z,31.93
2023-05-18T12:35:46.116Z,31.53
2023-05-18T12:36:46.105Z,30.72
2023-05-18T12:37:46.505Z,31.00
2023-05-18T12:38:46.120Z,31.78
2023-05-18T12:39:46.113Z,31.77
2023-05-18T12:40:46.075Z,30.86
2023-05-18T12:41:46.054Z,31.55
2023-05-18T12:42:46.078Z,30.96
2023-05-18T12:43:46.065Z,30.47
2023-05-18T12:44:46.050Z,31.30
2023-05-18T12:45:46.039Z,32.14
2023-05-18T12:46:46.059Z,32.75
2023-05-18T12:47:46.020Z,32.98
2023-05-18T12:48:46.005Z,34.31
2023-05-18T12:49:46.005Z,35.28
2023-05-18T12:50:46.290Z,35.99
2023-05-18T12:51:46.048Z,36.21
2023-05-18T12:52:46.043Z,36.63
2023-05-18T12:53:46.047Z,37.03
2023-05-18T12:54:46.042Z,36.99
2023-05-18T12:55:46.095Z,35.56